Time;durP1;ratioP1;P1;durP2;ratioP2;P2;SDS_P1;SDS_P2;PMS_P1;PMS_P2;Temp;Humidity;BMP_temperature;BMP_pressure;BME280_temperature;BME280_humidity;BME280_pressure;Samples;Min_cycle;Max_cycle;Signal;HPM_P1;HPM_P2
2023/12/24 00:02:13;;;;;;;10.30;3.30;;;;;;;-143.54;100.00;59916.91;5101056;28;20024;-80
2023/12/24 00:04:41;;;;;;;7.25;3.40;;;;;;;-143.54;100.00;59916.91;5096909;28;20028;-79
2023/12/24 00:07:06;;;;;;;7.15;3.70;;;;;;;-143.54;100.00;59916.91;5101730;28;20629;-78
2023/12/24 00:09:31;;;;;;;6.65;3.15;;;;;;;-143.54;100.00;59916.91;5096674;28;20115;-79
2023/12/24 00:11:57;;;;;;;10.13;3.58;;;;;;;-143.54;100.00;59916.91;5103516;28;20031;-79
2023/12/24 00:14:22;;;;;;;6.25;3.17;;;;;;;-143.54;100.00;59916.91;5085809;28;20032;-78
2023/12/24 00:16:47;;;;;;;8.82;3.42;;;;;;;-143.54;100.00;59916.91;5093092;28;20035;-78
2023/12/24 00:19:12;;;;;;;7.40;3.33;;;;;;;-143.54;100.00;59916.91;5099965;28;20060;-78
2023/12/24 00:21:38;;;;;;;4.93;3.40;;;;;;;-143.54;100.00;59916.91;5104203;28;20032;-79
2023/12/24 00:24:03;;;;;;;8.25;3.70;;;;;;;-143.54;100.00;59916.91;5103675;28;20031;-78
2023/12/24 00:26:29;;;;;;;7.38;4.13;;;;;;;-143.54;100.00;59916.91;5094263;28;20459;-78
2023/12/24 00:28:54;;;;;;;6.97;3.25;;;;;;;-143.54;100.00;59916.91;5089212;28;20486;-78
2023/12/24 00:31:19;;;;;;;5.57;3.30;;;;;;;-143.54;100.00;59916.91;5087406;28;20028;-78
2023/12/24 00:33:45;;;;;;;6.05;3.55;;;;;;;-143.54;100.00;59916.91;5099549;28;20073;-79
2023/12/24 00:36:10;;;;;;;10.68;3.10;;;;;;;-143.54;100.00;59916.91;5090067;28;20032;-78
2023/12/24 00:38:35;;;;;;;5.57;3.05;;;;;;;-143.54;100.00;59916.91;5087634;28;20400;-79
2023/12/24 00:41:00;;;;;;;8.38;3.10;;;;;;;-143.54;100.00;59916.91;5097798;28;20058;-78
2023/12/24 00:43:26;;;;;;;5.40;3.10;;;;;;;-143.54;100.00;59916.91;5101124;28;20463;-78
2023/12/24 00:45:51;;;;;;;5.75;3.20;;;;;;;-143.54;100.00;59916.91;5099773;28;20024;-79
2023/12/24 00:48:16;;;;;;;6.70;2.53;;;;;;;-143.54;100.00;59916.91;5096345;28;20028;-79
2023/12/24 00:50:42;;;;;;;6.97;2.95;;;;;;;-143.54;100.00;59916.91;5100281;28;20031;-79
2023/12/24 00:53:07;;;;;;;5.25;2.70;;;;;;;-143.54;100.00;59916.91;5095415;28;20024;-79
2023/12/24 00:55:32;;;;;;;6.13;2.35;;;;;;;-143.54;100.00;59916.91;5100008;28;20436;-78
2023/12/24 00:57:58;;;;;;;4.60;2.50;;;;;;;-143.54;100.00;59916.91;5096169;28;20051;-78
2023/12/24 01:00:23;;;;;;;6.30;2.58;;;;;;;-143.54;100.00;59916.91;5100228;28;20016;-78
2023/12/24 01:02:48;;;;;;;4.57;2.55;;;;;;;-143.54;100.00;59916.91;5096565;28;20522;-79
2023/12/24 01:05:13;;;;;;;5.80;2.13;;;;;;;-143.54;100.00;59916.91;5098588;28;20024;-78
2023/12/24 01:07:39;;;;;;;5.28;1.98;;;;;;;-143.54;100.00;59916.91;5093629;28;20468;-79
2023/12/24 01:10:06;;;;;;;5.35;2.15;;;;;;;-143.54;100.00;59916.91;5100054;28;20030;-78
2023/12/24 01:12:32;;;;;;;3.30;1.90;;;;;;;-143.54;100.00;59916.91;5092820;28;20391;-78
2023/12/24 01:14:58;;;;;;;7.60;1.92;;;;;;;-143.54;100.00;59916.91;5100179;28;20363;-78
2023/12/24 01:17:23;;;;;;;5.60;2.15;;;;;;;-143.54;100.00;59916.91;5099704;28;20024;-78
2023/12/24 01:19:49;;;;;;;5.55;2.10;;;;;;;-143.54;100.00;59916.91;5105331;28;20023;-78
2023/12/24 01:22:14;;;;;;;4.65;1.90;;;;;;;-143.54;100.00;59916.91;5102516;28;20539;-78
2023/12/24 01:24:39;;;;;;;7.28;2.20;;;;;;;-143.54;100.00;59916.91;5103769;28;20402;-78
2023/12/24 01:27:05;;;;;;;6.35;2.22;;;;;;;-143.54;100.00;59916.91;5101179;28;20031;-78
2023/12/24 01:29:31;;;;;;;7.50;1.80;;;;;;;-143.54;100.00;59916.91;5103725;28;20039;-78
2023/12/24 01:31:56;;;;;;;6.57;1.80;;;;;;;-143.54;100.00;59916.91;5099281;28;20016;-78
2023/12/24 01:34:22;;;;;;;5.00;1.92;;;;;;;-143.54;100.00;59916.91;5106286;28;20019;-78
2023/12/24 01:36:47;;;;;;;5.05;2.03;;;;;;;-143.54;100.00;59916.91;5096373;28;20062;-78
2023/12/24 01:39:13;;;;;;;12.82;2.10;;;;;;;-143.54;100.00;59916.91;5104939;28;20032;-78
2023/12/24 01:41:38;;;;;;;9.70;2.47;;;;;;;-143.54;100.00;59916.91;5094006;28;20024;-78
2023/12/24 01:44:04;;;;;;;8.52;1.80;;;;;;;-143.54;100.00;59916.91;5096267;28;20035;-78
2023/12/24 01:46:29;;;;;;;4.30;1.85;;;;;;;-143.54;100.00;59916.91;5098946;28;20035;-78
2023/12/24 01:48:56;;;;;;;7.85;2.00;;;;;;;-143.54;100.00;59916.91;5094935;28;20422;-78
2023/12/24 01:51:23;;;;;;;4.25;1.65;;;;;;;-143.54;100.00;59916.91;5099943;28;20104;-78
2023/12/24 01:53:50;;;;;;;4.40;1.75;;;;;;;-143.54;100.00;59916.91;5085610;28;20039;-78
2023/12/24 01:56:17;;;;;;;8.38;2.53;;;;;;;-143.54;100.00;59916.91;5099740;28;20036;-78
2023/12/24 01:58:42;;;;;;;6.88;1.95;;;;;;;-143.54;100.00;59916.91;5086988;28;20071;-78
2023/12/24 02:01:08;;;;;;;4.45;1.70;;;;;;;-143.54;100.00;59916.91;5103205;28;20061;-78
2023/12/24 02:03:33;;;;;;;4.35;2.10;;;;;;;-143.54;100.00;59916.91;5097399;28;20493;-78
2023/12/24 02:06:03;;;;;;;6.65;1.95;;;;;;;-143.54;100.00;59916.91;5096387;28;20365;-78
2023/12/24 02:08:28;;;;;;;7.68;2.65;;;;;;;-143.54;100.00;59916.91;5101725;28;20348;-78
2023/12/24 02:10:54;;;;;;;7.03;2.35;;;;;;;-143.54;100.00;59916.91;5088784;28;20044;-78
2023/12/24 02:13:19;;;;;;;9.85;3.40;;;;;;;-143.54;100.00;59916.91;5104067;28;20114;-78
2023/12/24 02:15:46;;;;;;;10.95;3.08;;;;;;;-143.54;100.00;59916.91;5100597;28;20031;-79
2023/12/24 02:18:11;;;;;;;6.88;2.80;;;;;;;-143.54;100.00;59916.91;5095816;28;20064;-78
2023/12/24 02:20:38;;;;;;;5.07;2.47;;;;;;;-143.54;100.00;59916.91;5095217;28;20055;-78
2023/12/24 02:23:04;;;;;;;8.38;3.33;;;;;;;-143.54;100.00;59916.91;5094709;28;20059;-79
2023/12/24 02:25:30;;;;;;;10.40;3.63;;;;;;;-143.54;100.00;59916.91;5093306;28;20032;-78
2023/12/24 02:28:06;;;;;;;6.95;4.03;;;;;;;-143.54;100.00;59916.91;5093276;28;20372;-79
2023/12/24 02:30:39;;;;;;;9.18;4.10;;;;;;;-143.54;100.00;59916.91;5095072;28;20067;-79
2023/12/24 02:33:06;;;;;;;;;;;;;;;-143.54;100.00;59916.91;5094548;28;20060;-79
2023/12/24 02:35:33;;;;;;;8.82;4.07;;;;;;;-143.54;100.00;59916.91;5097018;28;19923;-79
2023/12/24 02:37:59;;;;;;;8.85;4.13;;;;;;;-143.54;100.00;59916.91;5107954;28;20103;-79
2023/12/24 02:40:26;;;;;;;8.20;4.15;;;;;;;-143.54;100.00;59916.91;5094293;28;20039;-79
2023/12/24 02:42:51;;;;;;;11.57;4.60;;;;;;;-143.54;100.00;59916.91;5103285;28;20051;-79
2023/12/24 02:45:17;;;;;;;12.23;4.38;;;;;;;-143.54;100.00;59916.91;5095367;28;20468;-79
2023/12/24 02:47:42;;;;;;;9.77;4.88;;;;;;;-143.54;100.00;59916.91;5099603;28;20028;-79
2023/12/24 02:50:08;;;;;;;9.80;4.25;;;;;;;-143.54;100.00;59916.91;5091295;28;20446;-79
2023/12/24 02:52:33;;;;;;;8.70;3.92;;;;;;;-143.54;100.00;59916.91;5093840;28;20032;-79
2023/12/24 02:54:58;;;;;;;8.38;3.72;;;;;;;-143.54;100.00;59916.91;5094432;28;20424;-79
2023/12/24 02:57:24;;;;;;;9.43;3.67;;;;;;;-143.54;100.00;59916.91;5097851;28;20047;-79
2023/12/24 02:59:49;;;;;;;8.25;3.80;;;;;;;-143.54;100.00;59916.91;5093425;28;20036;-79
2023/12/24 03:02:14;;;;;;;10.73;4.03;;;;;;;-143.54;100.00;59916.91;5093975;28;20545;-80
2023/12/24 03:04:39;;;;;;;10.65;3.47;;;;;;;-143.54;100.00;59916.91;5094040;28;20062;-79
2023/12/24 03:07:05;;;;;;;6.43;3.40;;;;;;;-143.54;100.00;59916.91;5096346;28;20031;-79
2023/12/24 03:09:30;;;;;;;9.95;3.25;;;;;;;-143.54;100.00;59916.91;5094317;28;20099;-79
2023/12/24 03:11:56;;;;;;;9.05;2.92;;;;;;;-143.54;100.00;59916.91;5100688;28;20130;-79
2023/12/24 03:14:21;;;;;;;6.15;3.08;;;;;;;-143.54;100.00;59916.91;5094754;28;20055;-79
2023/12/24 03:16:46;;;;;;;7.07;3.08;;;;;;;-143.54;100.00;59916.91;5100602;28;20031;-79
2023/12/24 03:19:12;;;;;;;9.48;3.20;;;;;;;-143.54;100.00;59916.91;5101140;28;20129;-79
2023/12/24 03:21:41;;;;;;;4.72;2.92;;;;;;;-143.54;100.00;59916.91;5099838;28;20020;-80
2023/12/24 03:24:06;;;;;;;7.45;2.60;;;;;;;-143.54;100.00;59916.91;5096282;28;20028;-79
2023/12/24 03:26:32;;;;;;;4.28;3.38;;;;;;;-143.54;100.00;59916.91;5099480;28;20035;-79
2023/12/24 03:28:57;;;;;;;5.65;2.40;;;;;;;-143.54;100.00;59916.91;5087242;28;20024;-79
2023/12/24 03:31:26;;;;;;;6.45;2.33;;;;;;;-143.54;100.00;59916.91;5099618;28;20527;-79
2023/12/24 03:33:51;;;;;;;6.32;2.15;;;;;;;-143.54;100.00;59916.91;5096711;28;20047;-79
2023/12/24 03:36:16;;;;;;;2.35;1.77;;;;;;;-143.54;100.00;59916.91;5096102;28;20494;-79
2023/12/24 03:38:42;;;;;;;3.90;1.83;;;;;;;-143.54;100.00;59916.91;5096689;28;20468;-79
2023/12/24 03:41:08;;;;;;;5.13;2.05;;;;;;;-143.54;100.00;59916.91;5093000;28;20490;-80
2023/12/24 03:43:33;;;;;;;2.65;1.38;;;;;;;-143.54;100.00;59916.91;5100903;28;20024;-79
2023/12/24 03:45:59;;;;;;;3.53;1.30;;;;;;;-143.54;100.00;59916.91;5092550;28;20035;-79
2023/12/24 03:48:24;;;;;;;3.47;1.52;;;;;;;-143.54;100.00;59916.91;5096112;28;20028;-79
2023/12/24 03:50:49;;;;;;;2.35;1.00;;;;;;;-143.54;100.00;59916.91;5089871;28;20028;-79
2023/12/24 03:53:15;;;;;;;3.38;1.17;;;;;;;-143.54;100.00;59916.91;5093340;28;20035;-79
2023/12/24 03:55:40;;;;;;;1.30;1.10;;;;;;;-143.54;100.00;59916.91;5088033;28;20043;-79
2023/12/24 03:58:05;;;;;;;1.50;1.08;;;;;;;-143.54;100.00;59916.91;5089132;28;20480;-79
2023/12/24 04:00:31;;;;;;;3.53;1.00;;;;;;;-143.54;100.00;59916.91;5090884;28;20102;-79
2023/12/24 04:02:56;;;;;;;1.17;1.00;;;;;;;-143.54;100.00;59916.91;5092466;28;20016;-79
2023/12/24 04:05:22;;;;;;;2.28;1.20;;;;;;;-143.54;100.00;59916.91;5092995;28;20055;-80
2023/12/24 04:07:47;;;;;;;1.27;1.17;;;;;;;-143.54;100.00;59916.91;5098164;28;20032;-80
2023/12/24 04:10:13;;;;;;;2.75;1.58;;;;;;;-143.54;100.00;59916.91;5092585;28;20020;-80
2023/12/24 04:12:40;;;;;;;1.85;1.40;;;;;;;-143.54;100.00;59916.91;5092912;28;20435;-80
2023/12/24 04:15:06;;;;;;;2.17;1.70;;;;;;;-143.54;100.00;59916.91;5089775;28;20029;-80
2023/12/24 04:17:34;;;;;;;2.67;1.40;;;;;;;-143.54;100.00;59916.91;5092332;28;20077;-80
2023/12/24 04:19:59;;;;;;;1.45;1.35;;;;;;;-143.54;100.00;59916.91;5092526;28;20105;-80
2023/12/24 04:22:24;;;;;;;2.45;1.38;;;;;;;-143.54;100.00;59916.91;5092768;28;20365;-80
2023/12/24 04:24:50;;;;;;;2.03;1.20;;;;;;;-143.54;100.00;59916.91;5091959;28;20032;-80
2023/12/24 04:27:15;;;;;;;1.55;1.40;;;;;;;-143.54;100.00;59916.91;5089686;28;20465;-80
2023/12/24 04:29:40;;;;;;;1.13;0.98;;;;;;;-143.54;100.00;59916.91;5092632;28;20063;-80
2023/12/24 04:32:05;;;;;;;1.27;1.00;;;;;;;-143.54;100.00;59916.91;5091638;28;20040;-80
2023/12/24 04:34:31;;;;;;;1.45;1.10;;;;;;;-143.54;100.00;59916.91;5092719;28;20032;-80
2023/12/24 04:36:56;;;;;;;2.38;0.93;;;;;;;-143.54;100.00;59916.91;5085881;28;20114;-80
2023/12/24 04:39:22;;;;;;;2.08;1.00;;;;;;;-143.54;100.00;59916.91;5095108;28;20069;-80
2023/12/24 04:41:47;;;;;;;1.27;1.10;;;;;;;-143.54;100.00;59916.91;5092239;28;20020;-80
2023/12/24 04:44:12;;;;;;;1.30;1.00;;;;;;;-143.54;100.00;59916.91;5090610;28;20023;-80
2023/12/24 04:46:43;;;;;;;1.10;1.00;;;;;;;-143.54;100.00;59916.91;5098114;28;20373;-80
2023/12/24 04:49:09;;;;;;;2.03;1.13;;;;;;;-143.54;100.00;59916.91;5093339;28;20036;-80
2023/12/24 04:51:34;;;;;;;2.03;1.00;;;;;;;-143.54;100.00;59916.91;5094519;28;20031;-79
2023/12/24 04:54:00;;;;;;;1.33;1.23;;;;;;;-143.54;100.00;59916.91;5091453;28;20376;-80
2023/12/24 04:56:25;;;;;;;0.93;0.85;;;;;;;-143.54;100.00;59916.91;5092564;28;20054;-80
2023/12/24 04:58:51;;;;;;;1.23;1.02;;;;;;;-143.54;100.00;59916.91;5099212;28;20035;-80
2023/12/24 05:01:17;;;;;;;2.17;1.10;;;;;;;-143.54;100.00;59916.91;5096618;28;20017;-80
2023/12/24 05:03:43;;;;;;;3.28;1.25;;;;;;;-143.54;100.00;59916.91;5092113;28;20024;-80
2023/12/24 05:06:08;;;;;;;1.42;1.00;;;;;;;-143.54;100.00;59916.91;5086555;28;20032;-80
2023/12/24 05:08:33;;;;;;;1.83;1.08;;;;;;;-143.54;100.00;59916.91;5091020;28;20028;-80
2023/12/24 05:11:06;;;;;;;1.25;1.05;;;;;;;-143.54;100.00;59916.91;5091685;28;20043;-80
2023/12/24 05:13:31;;;;;;;1.15;1.00;;;;;;;-143.54;100.00;59916.91;5091823;28;20379;-79
2023/12/24 05:15:56;;;;;;;1.10;1.00;;;;;;;-143.54;100.00;59916.91;5097131;28;20024;-79
2023/12/24 05:18:22;;;;;;;1.10;0.90;;;;;;;-143.54;100.00;59916.91;5092161;28;20387;-79
2023/12/24 05:20:47;;;;;;;3.92;1.17;;;;;;;-143.54;100.00;59916.91;5091025;28;20103;-79
2023/12/24 05:23:12;;;;;;;1.50;0.90;;;;;;;-143.54;100.00;59916.91;5091959;28;20532;-79
2023/12/24 05:25:38;;;;;;;1.45;1.20;;;;;;;-143.54;100.00;59916.91;5097392;28;20032;-79
2023/12/24 05:28:03;;;;;;;1.27;1.17;;;;;;;-143.54;100.00;59916.91;5088124;28;20039;-79
2023/12/24 05:30:28;;;;;;;1.02;0.90;;;;;;;-143.54;100.00;59916.91;5092129;28;20119;-79
2023/12/24 05:32:54;;;;;;;1.98;0.93;;;;;;;-143.54;100.00;59916.91;5093151;28;20031;-79
2023/12/24 05:35:19;;;;;;;1.58;1.10;;;;;;;-143.54;100.00;59916.91;5091487;28;20028;-79
2023/12/24 05:37:46;;;;;;;1.67;1.05;;;;;;;-143.54;100.00;59916.91;5092092;28;20024;-79
2023/12/24 05:40:12;;;;;;;1.20;0.90;;;;;;;-143.54;100.00;59916.91;5092164;28;20053;-79
2023/12/24 05:42:37;;;;;;;1.30;1.20;;;;;;;-143.54;100.00;59916.91;5094311;28;20368;-79
2023/12/24 05:45:03;;;;;;;1.67;1.30;;;;;;;-143.54;100.00;59916.91;5092274;28;20531;-79
2023/12/24 05:47:29;;;;;;;1.52;1.10;;;;;;;-143.54;100.00;59916.91;5091829;28;20042;-79
2023/12/24 05:49:54;;;;;;;1.77;1.30;;;;;;;-143.54;100.00;59916.91;5090692;28;20410;-78
2023/12/24 05:52:19;;;;;;;1.58;1.35;;;;;;;-143.54;100.00;59916.91;5083086;28;20472;-79
2023/12/24 05:54:45;;;;;;;1.50;1.20;;;;;;;-143.54;100.00;59916.91;5099349;28;20460;-79
2023/12/24 05:57:10;;;;;;;2.28;1.38;;;;;;;-143.54;100.00;59916.91;5090505;28;20072;-79
2023/12/24 05:59:35;;;;;;;1.45;1.23;;;;;;;-143.54;100.00;59916.91;5092586;28;20103;-79
2023/12/24 06:02:02;;;;;;;1.45;1.33;;;;;;;-143.54;100.00;59916.91;5094607;28;20027;-79
2023/12/24 06:04:27;;;;;;;2.22;1.38;;;;;;;-143.54;100.00;59916.91;5094873;28;20513;-78
2023/12/24 06:06:52;;;;;;;1.35;1.23;;;;;;;-143.54;100.00;59916.91;5099364;28;20032;-79
2023/12/24 06:09:18;;;;;;;2.05;1.40;;;;;;;-143.54;100.00;59916.91;5094809;28;20093;-79
2023/12/24 06:11:43;;;;;;;1.45;1.23;;;;;;;-143.54;100.00;59916.91;5095080;28;20368;-78
2023/12/24 06:14:08;;;;;;;1.20;1.00;;;;;;;-143.54;100.00;59916.91;5095032;28;20050;-79
2023/12/24 06:16:33;;;;;;;1.40;0.95;;;;;;;-143.54;100.00;59916.91;5094791;28;20107;-79
2023/12/24 06:18:59;;;;;;;1.67;1.20;;;;;;;-143.54;100.00;59916.91;5094454;28;20024;-79
2023/12/24 06:21:24;;;;;;;1.80;1.27;;;;;;;-143.54;100.00;59916.91;5095338;28;20039;-79
2023/12/24 06:23:50;;;;;;;1.20;1.10;;;;;;;-143.54;100.00;59916.91;5094308;28;20031;-79
2023/12/24 06:26:15;;;;;;;1.40;1.30;;;;;;;-143.54;100.00;59916.91;5101075;28;20016;-79
2023/12/24 06:28:41;;;;;;;1.98;1.38;;;;;;;-143.54;100.00;59916.91;5097531;28;20031;-79
2023/12/24 06:31:06;;;;;;;1.55;1.20;;;;;;;-143.54;100.00;59916.91;5089561;28;20039;-79
2023/12/24 06:33:31;;;;;;;1.60;1.20;;;;;;;-143.54;100.00;59916.91;5090125;28;20020;-79
2023/12/24 06:35:57;;;;;;;2.60;1.08;;;;;;;-143.54;100.00;59916.91;5090708;28;20047;-78
2023/12/24 06:38:23;;;;;;;1.83;1.13;;;;;;;-143.54;100.00;59916.91;5096680;28;20100;-78
2023/12/24 06:40:48;;;;;;;1.73;1.08;;;;;;;-143.54;100.00;59916.91;5100776;28;20459;-78
2023/12/24 06:43:13;;;;;;;1.45;1.10;;;;;;;-143.54;100.00;59916.91;5094320;28;20028;-79
2023/12/24 06:45:38;;;;;;;1.45;1.23;;;;;;;-143.54;100.00;59916.91;5094753;28;20044;-79
2023/12/24 06:48:04;;;;;;;1.58;1.15;;;;;;;-143.54;100.00;59916.91;5097201;28;20093;-78
2023/12/24 06:50:30;;;;;;;1.08;0.98;;;;;;;-143.54;100.00;59916.91;5093576;28;20028;-79
2023/12/24 06:52:56;;;;;;;1.83;1.00;;;;;;;-143.54;100.00;59916.91;5096373;28;20115;-79
2023/12/24 06:55:21;;;;;;;1.15;0.90;;;;;;;-143.54;100.00;59916.91;5094513;28;20034;-79
2023/12/24 06:57:46;;;;;;;2.28;1.00;;;;;;;-143.54;100.00;59916.91;5091946;28;20040;-79
2023/12/24 07:00:12;;;;;;;2.47;1.10;;;;;;;-143.54;100.00;59916.91;5093684;28;20028;-79
2023/12/24 07:02:37;;;;;;;1.33;0.95;;;;;;;-143.54;100.00;59916.91;5095452;28;20031;-79
2023/12/24 07:05:03;;;;;;;1.20;1.08;;;;;;;-143.54;100.00;59916.91;5097046;28;20024;-79
2023/12/24 07:07:28;;;;;;;2.42;1.23;;;;;;;-143.54;100.00;59916.91;5100886;28;20360;-78
2023/12/24 07:09:54;;;;;;;2.05;1.20;;;;;;;-143.54;100.00;59916.91;5095347;28;20028;-79
2023/12/24 07:12:20;;;;;;;1.98;1.30;;;;;;;-143.54;100.00;59916.91;5094075;28;20028;-79
2023/12/24 07:14:45;;;;;;;2.08;1.30;;;;;;;-143.54;100.00;59916.91;5084813;28;20028;-79
2023/12/24 07:17:10;;;;;;;2.53;1.60;;;;;;;-143.54;100.00;59916.91;5098703;28;20031;-79
2023/12/24 07:19:36;;;;;;;2.35;1.17;;;;;;;-143.54;100.00;59916.91;5093895;28;20114;-79
2023/12/24 07:22:02;;;;;;;3.58;1.40;;;;;;;-143.54;100.00;59916.91;5093011;28;20030;-79
2023/12/24 07:24:27;;;;;;;1.85;1.30;;;;;;;-143.54;100.00;59916.91;5094082;28;20037;-79
2023/12/24 07:26:53;;;;;;;3.88;1.40;;;;;;;-143.54;100.00;59916.91;5092789;28;20028;-79
2023/12/24 07:29:18;;;;;;;1.95;1.48;;;;;;;-143.54;100.00;59916.91;5101785;28;20028;-79
2023/12/24 07:31:43;;;;;;;2.63;1.50;;;;;;;-143.54;100.00;59916.91;5097377;28;20379;-79
2023/12/24 07:34:08;;;;;;;4.10;1.63;;;;;;;-143.54;100.00;59916.91;5101167;28;20036;-79
2023/12/24 07:36:34;;;;;;;4.10;1.45;;;;;;;-143.54;100.00;59916.91;5093326;28;20031;-79
2023/12/24 07:38:59;;;;;;;2.40;1.40;;;;;;;-143.54;100.00;59916.91;5093267;28;20024;-79
2023/12/24 07:41:26;;;;;;;1.95;1.58;;;;;;;-143.54;100.00;59916.91;5092901;28;20032;-79
2023/12/24 07:43:52;;;;;;;2.55;1.50;;;;;;;-143.54;100.00;59916.91;5099446;28;20073;-79
2023/12/24 07:46:17;;;;;;;1.80;1.50;;;;;;;-143.54;100.00;59916.91;5095460;28;20020;-79
2023/12/24 07:48:43;;;;;;;3.53;1.50;;;;;;;-143.54;100.00;59916.91;5092900;28;20016;-79
2023/12/24 07:51:08;;;;;;;2.88;1.60;;;;;;;-143.54;100.00;59916.91;5093197;28;20036;-79
2023/12/24 07:53:33;;;;;;;2.28;1.20;;;;;;;-143.54;100.00;59916.91;5101036;28;20085;-79
2023/12/24 07:55:59;;;;;;;2.30;1.58;;;;;;;-143.54;100.00;59916.91;5092588;28;20034;-79
2023/12/24 07:58:24;;;;;;;2.63;1.48;;;;;;;-143.54;100.00;59916.91;5099417;28;20514;-79
2023/12/24 08:00:50;;;;;;;1.70;1.50;;;;;;;-143.54;100.00;59916.91;5092985;28;20028;-79
2023/12/24 08:03:15;;;;;;;2.30;1.50;;;;;;;-143.54;100.00;59916.91;5098936;28;20099;-79
2023/12/24 08:05:40;;;;;;;1.88;1.45;;;;;;;-143.54;100.00;59916.91;5094791;28;20054;-79
2023/12/24 08:08:05;;;;;;;3.05;1.58;;;;;;;-143.54;100.00;59916.91;5095123;28;20451;-79
2023/12/24 08:10:31;;;;;;;3.72;1.40;;;;;;;-143.54;100.00;59916.91;5092346;28;20020;-79
2023/12/24 08:12:56;;;;;;;2.45;1.50;;;;;;;-143.54;100.00;59916.91;5092388;28;20027;-79
2023/12/24 08:15:22;;;;;;;1.45;1.23;;;;;;;-143.54;100.00;59916.91;5096762;28;20431;-79
2023/12/24 08:17:48;;;;;;;2.53;1.30;;;;;;;-143.54;100.00;59916.91;5088946;28;20039;-79
2023/12/24 08:20:14;;;;;;;2.08;1.20;;;;;;;-143.54;100.00;59916.91;5097237;28;20016;-79
2023/12/24 08:22:39;;;;;;;3.35;1.50;;;;;;;-143.54;100.00;59916.91;5093164;28;20384;-79
2023/12/24 08:25:05;;;;;;;2.28;1.60;;;;;;;-143.54;100.00;59916.91;5092774;28;20090;-79
2023/12/24 08:27:31;;;;;;;4.88;1.70;;;;;;;-143.54;100.00;59916.91;5096904;28;20495;-79
2023/12/24 08:29:56;;;;;;;1.63;1.52;;;;;;;-143.54;100.00;59916.91;5092883;28;20024;-79
2023/12/24 08:32:21;;;;;;;1.75;1.38;;;;;;;-143.54;100.00;59916.91;5092473;28;20028;-79
2023/12/24 08:34:47;;;;;;;2.10;1.50;;;;;;;-143.54;100.00;59916.91;5092317;28;20028;-79
2023/12/24 08:37:12;;;;;;;3.05;1.60;;;;;;;-143.54;100.00;59916.91;5099781;28;20361;-79
2023/12/24 08:39:38;;;;;;;2.03;1.55;;;;;;;-143.54;100.00;59916.91;5094358;28;20062;-79
2023/12/24 08:42:03;;;;;;;2.45;1.67;;;;;;;-143.54;100.00;59916.91;5092664;28;20028;-79
2023/12/24 08:44:28;;;;;;;2.45;1.55;;;;;;;-143.54;100.00;59916.91;5092509;28;21494;-79
2023/12/24 08:46:54;;;;;;;2.15;1.52;;;;;;;-143.54;100.00;59916.91;5091836;28;20442;-79
2023/12/24 08:49:19;;;;;;;1.95;1.55;;;;;;;-143.54;100.00;59916.91;5091484;28;20031;-79
2023/12/24 08:51:44;;;;;;;1.63;1.50;;;;;;;-143.54;100.00;59916.91;5096248;28;20020;-79
2023/12/24 08:54:10;;;;;;;1.58;1.45;;;;;;;-143.54;100.00;59916.91;5092237;28;20483;-79
2023/12/24 08:56:35;;;;;;;1.70;1.60;;;;;;;-143.54;100.00;59916.91;5092364;28;20443;-80
2023/12/24 08:59:03;;;;;;;2.20;1.90;;;;;;;-143.54;100.00;59916.91;5091166;28;20062;-79
2023/12/24 09:01:29;;;;;;;3.30;2.00;;;;;;;-143.54;100.00;59916.91;5092279;28;20089;-79
2023/12/24 09:03:54;;;;;;;2.17;1.67;;;;;;;-143.54;100.00;59916.91;5091671;28;20036;-79
2023/12/24 09:06:19;;;;;;;1.95;1.55;;;;;;;-143.54;100.00;59916.91;5091507;28;20027;-79
2023/12/24 09:08:44;;;;;;;3.63;1.60;;;;;;;-143.54;100.00;59916.91;5091596;28;20060;-79
2023/12/24 09:11:10;;;;;;;4.15;1.80;;;;;;;-143.54;100.00;59916.91;5092309;28;20024;-79
2023/12/24 09:13:35;;;;;;;2.45;2.08;;;;;;;-143.54;100.00;59916.91;5088874;28;20103;-79
2023/12/24 09:16:00;;;;;;;2.33;1.85;;;;;;;-143.54;100.00;59916.91;5091341;28;20485;-79
2023/12/24 09:18:26;;;;;;;4.43;2.15;;;;;;;-143.54;100.00;59916.91;5095402;28;20028;-79
2023/12/24 09:20:51;;;;;;;3.58;1.85;;;;;;;-143.54;100.00;59916.91;5093086;28;20008;-79
2023/12/24 09:23:16;;;;;;;2.20;2.00;;;;;;;-143.54;100.00;59916.91;5098707;28;20455;-80
2023/12/24 09:25:42;;;;;;;3.15;1.83;;;;;;;-143.54;100.00;59916.91;5097851;28;20035;-80
2023/12/24 09:28:08;;;;;;;2.15;1.63;;;;;;;-143.54;100.00;59916.91;5089302;28;20039;-80
2023/12/24 09:30:33;;;;;;;2.97;1.88;;;;;;;-143.54;100.00;59916.91;5091551;28;20040;-80
2023/12/24 09:32:58;;;;;;;4.07;1.60;;;;;;;-143.54;100.00;59916.91;5092742;28;20028;-80
2023/12/24 09:35:23;;;;;;;1.80;1.60;;;;;;;-143.54;100.00;59916.91;5091433;28;20107;-79
2023/12/24 09:37:49;;;;;;;1.60;1.40;;;;;;;-143.54;100.00;59916.91;5097736;28;20474;-79
2023/12/24 09:40:14;;;;;;;2.17;1.55;;;;;;;-143.54;100.00;59916.91;5096383;28;20375;-80
2023/12/24 09:42:39;;;;;;;3.22;1.98;;;;;;;-143.54;100.00;59916.91;5109343;28;20027;-80
2023/12/24 09:45:05;;;;;;;2.40;1.80;;;;;;;-143.54;100.00;59916.91;5095693;28;20054;-79
2023/12/24 09:47:31;;;;;;;2.53;1.73;;;;;;;-143.54;100.00;59916.91;5085059;28;20028;-80
2023/12/24 09:49:58;;;;;;;2.30;1.70;;;;;;;-143.54;100.00;59916.91;5090649;28;20013;-80
2023/12/24 09:52:24;;;;;;;4.63;2.17;;;;;;;-143.54;100.00;59916.91;5093758;28;20032;-79
2023/12/24 09:54:50;;;;;;;4.50;2.33;;;;;;;-143.54;100.00;59916.91;5094876;28;20102;-80
2023/12/24 09:57:15;;;;;;;3.88;2.55;;;;;;;-143.54;100.00;59916.91;5086778;28;20131;-79
2023/12/24 09:59:40;;;;;;;4.28;2.58;;;;;;;-143.54;100.00;59916.91;5096984;28;20027;-79
2023/12/24 10:02:06;;;;;;;4.97;2.47;;;;;;;-143.54;100.00;59916.91;5102018;28;20428;-79
2023/12/24 10:04:31;;;;;;;5.72;3.30;;;;;;;-143.54;100.00;59916.91;5100623;28;20443;-79
2023/12/24 10:06:58;;;;;;;8.65;4.00;;;;;;;-143.54;100.00;59916.91;5101996;28;20111;-79
2023/12/24 10:09:43;;;;;;;10.02;4.55;;;;;;;-143.54;100.00;59916.91;5095718;28;20024;-79
2023/12/24 10:12:08;;;;;;;12.68;5.30;;;;;;;-143.54;100.00;59916.91;5090588;28;20030;-78
2023/12/24 10:14:35;;;;;;;14.55;6.63;;;;;;;-143.54;100.00;59916.91;5095210;28;20028;-80
2023/12/24 10:17:01;;;;;;;14.77;7.32;;;;;;;-143.54;100.00;59916.91;5097315;28;20353;-80
2023/12/24 10:19:27;;;;;;;15.63;6.78;;;;;;;-143.54;100.00;59916.91;5094063;28;20468;-79
2023/12/24 10:21:59;;;;;;;14.10;7.05;;;;;;;-143.54;100.00;59916.91;5101531;28;20031;-79
2023/12/24 10:24:27;;;;;;;20.40;8.32;;;;;;;-143.54;100.00;59916.91;5095409;28;20102;-79
2023/12/24 10:27:03;;;;;;;12.40;7.40;;;;;;;-143.54;100.00;59916.91;5094720;28;20476;-79
2023/12/24 10:29:29;;;;;;;17.25;8.65;;;;;;;-143.54;100.00;59916.91;5093643;28;20283;-79
2023/12/24 10:31:54;;;;;;;20.33;8.77;;;;;;;-143.54;100.00;59916.91;5093626;28;20020;-80
2023/12/24 10:34:19;;;;;;;20.88;8.75;;;;;;;-143.54;100.00;59916.91;5097103;28;20110;-79
2023/12/24 10:36:46;;;;;;;19.90;9.48;;;;;;;-143.54;100.00;59916.91;5093715;28;20088;-80
2023/12/24 10:39:17;;;;;;;19.73;9.38;;;;;;;-143.54;100.00;59916.91;5093829;28;20035;-79
2023/12/24 10:41:42;;;;;;;20.13;9.35;;;;;;;-143.54;100.00;59916.91;5089630;28;20098;-80
2023/12/24 10:44:07;;;;;;;22.60;9.40;;;;;;;-143.54;100.00;59916.91;5090066;28;20059;-80
2023/12/24 10:46:33;;;;;;;25.88;10.40;;;;;;;-143.54;100.00;59916.91;5101003;28;20042;-80
2023/12/24 10:48:58;;;;;;;20.88;9.40;;;;;;;-143.54;100.00;59916.91;5092885;28;20104;-80
2023/12/24 10:51:23;;;;;;;23.92;9.68;;;;;;;-143.54;100.00;59916.91;5099815;28;20032;-80
2023/12/24 10:53:49;;;;;;;18.88;9.13;;;;;;;-143.54;100.00;59916.91;5095044;28;20057;-80
2023/12/24 10:56:23;;;;;;;17.13;8.40;;;;;;;-143.54;100.00;59916.91;5093270;28;20475;-81
2023/12/24 10:59:11;;;;;;;19.30;8.88;;;;;;;-143.54;100.00;59916.91;5091152;28;20288;-81
2023/12/24 11:01:38;;;;;;;14.50;8.27;;;;;;;-143.54;100.00;59916.91;5095604;28;20039;-81
2023/12/24 11:04:04;;;;;;;17.15;7.45;;;;;;;-143.54;100.00;59916.91;5095296;28;20123;-81